Главная страница
METAR-TAF:

METAR-TAF

Аэропорты :

Фааа

Таити, Французская Полинезия

широта: 17-33S, долгота: 149-37W, высота над уровнем моря: 2 м

Текущие метеонаблюдения

Эта сводка был подготовлена 23 минут назад, в 11:30 UTC
Ветер 5 Узел от южный
Температура 24°C
Влажность 78%
Давление 1015 hPa
Видимость 10 км и более
небольшая облачность на высоте 2000 фута
Отдельные облака на высоте 6600 фута

METAR: NTAA 211130Z 17005KT 9999 FEW020 SCT066 24/20 Q1015 NOSIG

Время: 01:53 (11:53 UTC)

Прогноз

Эта сводка был подготовлена 53 минут назад, в 11:00 UTC
Прогноз действительный с 21-го 12 UTC до 22-го 18 UTC
Ветер 5 Узел переменных направлений
Видимость 10 км и более
небольшая облачность на высоте 2000 фута
Отдельные облака на высоте 6000 фута

TAF: NTAA 211100Z 2112/2218 VRB05KT 9999 FEW020 SCT060

Метеонаблюдения и прогнозы для более 4000 аэропортов (сводки METAR и TAF).

Имеющиеся станции представлены на карте желтыми и красными точками.

Чтобы увидеть название станции, наведите на нее мышь.

Затем щелкните, чтобы увидеть метеонаблюдения и метеопрогнозы.

Управление картой: чтобы увеличить масштаб, щелкните зеленые кнопки с черным крестиком; чтобы уменьшить масштаб, щелкните зеленую кнопку с тире; для просмотра соседних карт щелкайте зеленые стрелки.


METAR-TAF: